createdAt,value
2018-08-24T00:00:25.575Z,98295.35
2018-08-24T00:02:54.148Z,98290.94
2018-08-24T00:05:22.672Z,98286.30
2018-08-24T00:07:51.205Z,98287.92
2018-08-24T00:10:19.658Z,98281.27
2018-08-24T00:12:48.228Z,98279.56
2018-08-24T00:15:16.728Z,98270.06
2018-08-24T00:17:48.477Z,98266.78
2018-08-24T00:20:16.965Z,98260.57
2018-08-24T00:22:45.466Z,98263.02
2018-08-24T00:25:13.929Z,98265.21
2018-08-24T00:27:42.486Z,98272.86
2018-08-24T00:30:11.047Z,98268.84
2018-08-24T00:32:39.590Z,98277.81
2018-08-24T00:35:08.053Z,98270.84
2018-08-24T00:37:36.549Z,98269.89
2018-08-24T00:40:05.110Z,98267.44
2018-08-24T00:42:33.686Z,98267.88
2018-08-24T00:45:02.194Z,98263.67
2018-08-24T00:47:31.506Z,98272.20
2018-08-24T00:50:00.081Z,98268.40
2018-08-24T00:52:28.570Z,98263.49
2018-08-24T00:54:57.103Z,98258.06
2018-08-24T00:57:25.590Z,98262.14
2018-08-24T00:59:54.102Z,98264.11
2018-08-24T01:02:22.651Z,98262.45
2018-08-24T01:04:51.086Z,98262.18
2018-08-24T01:07:19.534Z,98261.73
2018-08-24T01:09:48.045Z,98263.22
2018-08-24T01:12:17.506Z,98259.66
2018-08-24T01:14:47.256Z,98272.02
2018-08-24T01:17:21.117Z,98272.84
2018-08-24T01:19:49.586Z,98272.45
2018-08-24T01:22:18.022Z,98283.00
2018-08-24T01:24:46.532Z,98282.29
2018-08-24T01:27:14.995Z,98284.61
2018-08-24T01:29:44.275Z,98279.70
2018-08-24T01:32:14.677Z,98290.08
2018-08-24T01:34:43.268Z,98286.60
2018-08-24T01:37:11.746Z,98279.55
2018-08-24T01:39:40.166Z,98277.69
2018-08-24T01:42:08.609Z,98273.03
2018-08-24T01:44:37.104Z,98278.41
2018-08-24T01:47:05.617Z,98277.42
2018-08-24T01:49:34.186Z,98272.33
2018-08-24T01:52:02.655Z,98270.31
2018-08-24T01:54:32.120Z,98263.65
2018-08-24T01:57:00.553Z,98262.23
2018-08-24T01:59:29.033Z,98261.46
2018-08-24T02:01:57.490Z,98260.13
2018-08-24T02:04:25.998Z,98266.73
2018-08-24T02:06:54.622Z,98272.17
2018-08-24T02:09:23.724Z,98281.05
2018-08-24T02:11:52.458Z,98284.41
2018-08-24T02:14:26.361Z,98275.05
2018-08-24T02:16:54.970Z,98277.23
2018-08-24T02:19:28.734Z,98279.42
2018-08-24T02:22:02.375Z,98278.16
2018-08-24T02:24:31.216Z,98280.91
2018-08-24T02:26:59.617Z,98279.24
2018-08-24T02:29:28.138Z,98290.66
2018-08-24T02:31:56.650Z,98294.23
2018-08-24T02:34:25.207Z,98286.17
2018-08-24T02:36:53.729Z,98288.50
2018-08-24T02:39:22.166Z,98288.55
2018-08-24T02:41:50.664Z,98290.56
2018-08-24T02:44:19.142Z,98292.75
2018-08-24T02:46:47.627Z,98280.94
2018-08-24T02:49:16.120Z,98279.44
2018-08-24T02:51:44.749Z,98275.23
2018-08-24T02:54:13.269Z,98276.73
2018-08-24T02:56:41.887Z,98268.42
2018-08-24T02:59:10.314Z,98274.02
2018-08-24T03:01:38.802Z,98281.14
2018-08-24T03:04:07.316Z,98278.86
2018-08-24T03:06:35.834Z,98283.30
2018-08-24T03:09:07.101Z,98278.72
2018-08-24T03:11:35.619Z,98279.94
2018-08-24T03:14:04.079Z,98278.45
2018-08-24T03:16:32.849Z,98277.13
2018-08-24T03:19:01.389Z,98271.91
2018-08-24T03:21:29.841Z,98268.20
2018-08-24T03:23:58.346Z,98275.36
2018-08-24T03:26:26.796Z,98287.03
2018-08-24T03:28:55.549Z,98291.89
2018-08-24T03:31:24.066Z,98284.42
2018-08-24T03:33:52.513Z,98291.58
2018-08-24T03:36:21.014Z,98286.16
2018-08-24T03:38:49.487Z,98279.77
2018-08-24T03:41:17.986Z,98280.12
2018-08-24T03:43:46.433Z,98279.84
2018-08-24T03:46:14.950Z,98274.10
2018-08-24T03:48:43.530Z,98275.00
2018-08-24T03:51:11.997Z,98275.84
2018-08-24T03:53:40.466Z,98273.83
2018-08-24T03:56:08.994Z,98274.52
2018-08-24T03:58:37.425Z,98274.20
2018-08-24T04:01:06.034Z,98280.49
2018-08-24T04:03:34.502Z,98278.69
2018-08-24T04:06:03.018Z,98281.42
2018-08-24T04:08:31.710Z,98284.65
2018-08-24T04:11:00.187Z,98292.08
2018-08-24T04:13:28.635Z,98281.11
2018-08-24T04:15:57.078Z,98288.63
2018-08-24T04:18:25.491Z,98288.97
2018-08-24T04:20:54.085Z,98288.77
2018-08-24T04:23:22.565Z,98292.52
2018-08-24T04:25:51.093Z,98296.58
2018-08-24T04:28:19.545Z,98299.98
2018-08-24T04:30:48.126Z,98302.17
2018-08-24T04:33:16.810Z,98305.08
2018-08-24T04:35:45.305Z,98301.99
2018-08-24T04:38:13.933Z,98301.06
2018-08-24T04:40:42.609Z,98301.58
2018-08-24T04:43:11.061Z,98304.61
2018-08-24T04:45:39.757Z,98303.12
2018-08-24T04:48:08.163Z,98306.34
2018-08-24T04:50:36.593Z,98306.48
2018-08-24T04:53:05.092Z,98311.91
2018-08-24T04:55:33.859Z,98309.79
2018-08-24T04:58:02.360Z,98322.75
2018-08-24T05:00:30.971Z,98317.40
2018-08-24T05:02:59.440Z,98319.41
2018-08-24T05:05:27.891Z,98322.71
2018-08-24T05:07:56.493Z,98327.16
2018-08-24T05:10:25.886Z,98328.86
2018-08-24T05:12:54.405Z,98329.84
2018-08-24T05:15:22.825Z,98343.59
2018-08-24T05:17:51.343Z,98346.37
2018-08-24T05:20:19.794Z,98355.26
2018-08-24T05:22:48.298Z,98343.62
2018-08-24T05:25:16.749Z,98352.04
2018-08-24T05:27:45.305Z,98348.49
2018-08-24T05:30:13.726Z,98349.33
2018-08-24T05:32:42.382Z,98346.87
2018-08-24T05:35:10.779Z,98352.57
2018-08-24T05:37:39.282Z,98362.99
2018-08-24T05:40:07.768Z,98366.23
2018-08-24T05:42:36.218Z,98362.04
2018-08-24T05:45:05.226Z,98364.97
2018-08-24T05:47:33.790Z,98367.98
2018-08-24T05:50:02.302Z,98367.86
2018-08-24T05:52:30.914Z,98364.95
2018-08-24T05:54:59.362Z,98366.61
2018-08-24T05:57:27.870Z,98363.84
2018-08-24T05:59:56.349Z,98365.23
2018-08-24T06:02:25.226Z,98358.70
2018-08-24T06:04:54.317Z,98361.36
2018-08-24T06:07:22.773Z,98361.02
2018-08-24T06:09:51.270Z,98363.03
2018-08-24T06:12:19.823Z,98370.47
2018-08-24T06:14:48.257Z,98374.48
2018-08-24T06:17:21.937Z,98370.91
2018-08-24T06:19:50.436Z,98370.28
2018-08-24T06:22:18.886Z,98366.39
2018-08-24T06:24:47.470Z,98367.05
2018-08-24T06:27:15.952Z,98366.00
2018-08-24T06:29:44.614Z,98371.77
2018-08-24T06:32:13.133Z,98371.77
2018-08-24T06:34:41.817Z,98378.88
2018-08-24T06:37:10.342Z,98386.19
2018-08-24T06:39:38.794Z,98389.48
2018-08-24T06:42:07.330Z,98392.91
2018-08-24T06:44:36.033Z,98391.64
2018-08-24T06:47:04.601Z,98394.66
2018-08-24T06:49:33.557Z,98393.31
2018-08-24T06:52:02.002Z,98397.20
2018-08-24T06:54:30.858Z,98402.69
2018-08-24T06:56:59.366Z,98400.75
2018-08-24T06:59:27.884Z,98406.44
2018-08-24T07:01:58.682Z,98400.92
2018-08-24T07:04:27.410Z,98401.84
2018-08-24T07:06:56.193Z,98406.36
2018-08-24T07:09:24.690Z,98408.19
2018-08-24T07:11:53.303Z,98406.98
2018-08-24T07:14:21.729Z,98406.25
2018-08-24T07:16:54.367Z,98401.91
2018-08-24T07:19:22.864Z,98408.70
2018-08-24T07:21:51.426Z,98407.66
2018-08-24T07:24:19.862Z,98411.38
2018-08-24T07:26:48.333Z,98412.38
2018-08-24T07:29:16.870Z,98410.84
2018-08-24T07:31:45.463Z,98408.12
2018-08-24T07:34:13.925Z,98414.68
2018-08-24T07:36:42.631Z,98414.29
2018-08-24T07:39:13.173Z,98415.05
2018-08-24T07:41:41.683Z,98418.75
2018-08-24T07:44:10.712Z,98411.38
2018-08-24T07:46:39.567Z,98416.01
2018-08-24T07:49:08.838Z,98410.81
2018-08-24T07:51:38.162Z,98413.86
2018-08-24T07:54:06.682Z,98412.00
2018-08-24T07:56:35.150Z,98415.89
2018-08-24T07:59:03.997Z,98415.12
2018-08-24T08:01:33.097Z,98421.47
2018-08-24T08:04:03.030Z,98411.42
2018-08-24T08:06:31.697Z,98427.27
2018-08-24T08:09:00.701Z,98419.33
2018-08-24T08:11:35.173Z,98415.52
2018-08-24T08:14:04.029Z,98412.30
2018-08-24T08:16:32.882Z,98415.89
2018-08-24T08:19:01.301Z,98418.40
2018-08-24T08:21:29.862Z,98411.48
2018-08-24T08:23:58.393Z,98422.47
2018-08-24T08:26:26.875Z,98414.38
2018-08-24T08:28:55.419Z,98416.70
2018-08-24T08:31:23.945Z,98411.28
2018-08-24T08:33:52.425Z,98411.02
2018-08-24T08:36:20.911Z,98420.30
2018-08-24T08:38:49.453Z,98417.39
2018-08-24T08:41:17.897Z,98419.66
2018-08-24T08:43:46.306Z,98417.37
2018-08-24T08:46:14.805Z,98412.02
2018-08-24T08:48:43.372Z,98423.27
2018-08-24T08:51:11.885Z,98419.05
2018-08-24T08:53:40.354Z,98416.42
2018-08-24T08:56:08.897Z,98427.54
2018-08-24T08:58:37.377Z,98423.77
2018-08-24T09:01:06.023Z,98430.87
2018-08-24T09:03:34.498Z,98431.66
2018-08-24T09:06:03.130Z,98435.56
2018-08-24T09:08:32.086Z,98434.19
2018-08-24T09:11:00.621Z,98435.14
2018-08-24T09:13:29.178Z,98433.15
2018-08-24T09:15:57.638Z,98433.52
2018-08-24T09:18:32.129Z,98431.66
2018-08-24T09:21:05.901Z,98427.64
2018-08-24T09:23:39.860Z,98426.27
2018-08-24T09:26:13.707Z,98428.27
2018-08-24T09:28:42.414Z,98430.83
2018-08-24T09:31:15.061Z,98430.41
2018-08-24T09:33:43.602Z,98427.06
2018-08-24T09:36:17.245Z,98423.27
2018-08-24T09:38:45.702Z,98425.16
2018-08-24T09:41:14.359Z,98428.95
2018-08-24T09:43:48.163Z,98432.80
2018-08-24T09:46:17.666Z,98424.63
2018-08-24T09:48:51.438Z,98416.13
2018-08-24T09:51:26.808Z,98424.22
2018-08-24T09:54:00.809Z,98423.36
2018-08-24T09:56:30.250Z,98419.84
2018-08-24T09:58:59.105Z,98421.33
2018-08-24T10:01:33.018Z,98425.42
2018-08-24T10:04:06.898Z,98426.39
2018-08-24T10:06:40.685Z,98413.36
2018-08-24T10:09:10.972Z,98415.05
2018-08-24T10:11:39.802Z,98409.98
2018-08-24T10:14:08.652Z,98409.09
2018-08-24T10:16:37.460Z,98404.33
2018-08-24T10:19:06.169Z,98407.33
2018-08-24T10:21:34.625Z,98411.59
2018-08-24T10:24:04.229Z,98395.63
2018-08-24T10:26:33.009Z,98400.56
2018-08-24T10:29:01.569Z,98397.23
2018-08-24T10:31:30.313Z,98391.78
2018-08-24T10:33:58.863Z,98396.72
2018-08-24T10:36:27.425Z,98396.50
2018-08-24T10:38:56.140Z,98393.77
2018-08-24T10:41:24.792Z,98393.64
2018-08-24T10:43:53.480Z,98390.38
2018-08-24T10:46:21.949Z,98390.08
2018-08-24T10:48:50.590Z,98395.25
2018-08-24T10:51:19.161Z,98403.45
2018-08-24T10:53:47.720Z,98394.09
2018-08-24T10:56:16.248Z,98392.96
2018-08-24T10:58:44.990Z,98391.14
2018-08-24T11:01:13.462Z,98393.23
2018-08-24T11:03:42.300Z,98388.36
2018-08-24T11:06:10.842Z,98388.77
2018-08-24T11:08:39.270Z,98386.41
2018-08-24T11:11:07.935Z,98390.95
2018-08-24T11:13:36.437Z,98391.55
2018-08-24T11:16:04.929Z,98385.94
2018-08-24T11:18:33.571Z,98383.34
2018-08-24T11:21:02.238Z,98381.97
2018-08-24T11:23:31.028Z,98380.09
2018-08-24T11:25:59.983Z,98378.52
2018-08-24T11:28:28.596Z,98376.25
2018-08-24T11:30:57.002Z,98382.99
2018-08-24T11:33:25.563Z,98373.00
2018-08-24T11:35:57.136Z,98371.22
2018-08-24T11:38:25.599Z,98363.44
2018-08-24T11:40:54.090Z,98363.59
2018-08-24T11:43:22.621Z,98357.70
2018-08-24T11:48:13.676Z,98363.67
2018-08-24T11:50:42.271Z,98360.21
2018-08-24T11:53:10.989Z,98364.13
2018-08-24T11:55:39.477Z,98360.08
2018-08-24T11:58:07.981Z,98367.04
2018-08-24T12:00:36.514Z,98360.89
2018-08-24T12:03:05.233Z,98370.64
2018-08-24T12:05:33.831Z,98360.45
2018-08-24T12:08:02.443Z,98360.73
2018-08-24T12:10:30.842Z,98365.77
2018-08-24T12:12:59.403Z,98388.69
2018-08-24T12:15:27.874Z,98377.62
2018-08-24T12:17:56.662Z,98371.69
2018-08-24T12:20:25.375Z,98384.70
2018-08-24T12:22:54.217Z,98388.19
2018-08-24T12:25:22.889Z,98384.63
2018-08-24T12:27:51.362Z,98386.00
2018-08-24T12:30:19.911Z,98388.82
2018-08-24T12:32:48.482Z,98392.92
2018-08-24T12:35:16.981Z,98401.77
2018-08-24T12:37:46.801Z,98395.94
2018-08-24T12:40:15.850Z,98393.10
2018-08-24T12:42:44.585Z,98390.45
2018-08-24T12:45:13.518Z,98388.00
2018-08-24T12:47:42.262Z,98382.59
2018-08-24T12:50:11.098Z,98404.58
2018-08-24T12:52:39.649Z,98402.52
2018-08-24T12:55:08.221Z,98402.58
2018-08-24T12:57:36.661Z,98404.15
2018-08-24T13:00:05.238Z,98395.91
2018-08-24T13:02:34.492Z,98401.54
2018-08-24T13:05:03.029Z,98404.81
2018-08-24T13:07:31.645Z,98399.48
2018-08-24T13:10:00.145Z,98410.58
2018-08-24T13:12:28.687Z,98397.98
2018-08-24T13:14:57.167Z,98408.02
2018-08-24T13:17:25.762Z,98405.52
2018-08-24T13:19:54.385Z,98395.78
2018-08-24T13:22:23.048Z,98397.30
2018-08-24T13:24:51.669Z,98406.90
2018-08-24T13:27:20.245Z,98406.45
2018-08-24T13:29:48.634Z,98401.14
2018-08-24T13:32:17.221Z,98417.88
2018-08-24T13:34:45.701Z,98418.95
2018-08-24T13:37:14.228Z,98425.75
2018-08-24T13:39:42.885Z,98424.16
2018-08-24T13:42:11.534Z,98428.63
2018-08-24T13:44:40.189Z,98429.22
2018-08-24T13:47:08.649Z,98425.38
2018-08-24T13:49:37.138Z,98425.28
2018-08-24T13:52:06.020Z,98429.34
2018-08-24T13:54:34.537Z,98432.31
2018-08-24T13:57:03.107Z,98436.96
2018-08-24T13:59:31.766Z,98443.05
2018-08-24T14:02:00.297Z,98448.22
2018-08-24T14:04:28.709Z,98451.17
2018-08-24T14:06:57.253Z,98456.65
2018-08-24T14:09:25.734Z,98455.80
2018-08-24T14:11:54.334Z,98456.58
2018-08-24T14:14:22.749Z,98455.27
2018-08-24T14:16:51.365Z,98459.03
2018-08-24T14:19:19.874Z,98453.91
2018-08-24T14:21:48.389Z,98453.91
2018-08-24T14:24:16.931Z,98452.51
2018-08-24T14:26:45.603Z,98455.32
2018-08-24T14:29:13.981Z,98470.73
2018-08-24T14:31:42.530Z,98455.14
2018-08-24T14:34:10.926Z,98461.62
2018-08-24T14:36:39.777Z,98454.48
2018-08-24T14:39:09.686Z,98464.73
2018-08-24T14:41:38.195Z,98452.50
2018-08-24T14:44:07.229Z,98459.69
2018-08-24T14:46:35.853Z,98457.62
2018-08-24T14:49:04.646Z,98461.23
2018-08-24T14:51:33.510Z,98461.23
2018-08-24T14:54:02.047Z,98448.92
2018-08-24T14:56:30.565Z,98445.78
2018-08-24T14:58:59.164Z,98449.45
2018-08-24T15:01:27.678Z,98452.67
2018-08-24T15:03:56.413Z,98457.91
2018-08-24T15:06:24.885Z,98454.64
2018-08-24T15:08:53.458Z,98448.16
2018-08-24T15:11:21.994Z,98446.33
2018-08-24T15:13:50.582Z,98444.32
2018-08-24T15:16:20.186Z,98441.92
2018-08-24T15:18:48.977Z,98439.02
2018-08-24T15:21:17.469Z,98435.22
2018-08-24T15:23:45.970Z,98430.59
2018-08-24T15:26:14.503Z,98438.02
2018-08-24T15:28:43.112Z,98440.06
2018-08-24T15:31:11.713Z,98443.57
2018-08-24T15:33:40.214Z,98446.20
2018-08-24T15:36:08.731Z,98440.73
2018-08-24T15:38:37.174Z,98438.20
2018-08-24T15:41:05.641Z,98441.08
2018-08-24T15:43:34.250Z,98440.48
2018-08-24T15:46:02.774Z,98444.85
2018-08-24T15:48:31.509Z,98445.02
2018-08-24T15:50:59.945Z,98439.67
2018-08-24T15:53:28.483Z,98435.50
2018-08-24T15:55:56.962Z,98436.80
2018-08-24T15:58:25.606Z,98425.66
2018-08-24T16:00:54.158Z,98428.29
2018-08-24T16:03:22.789Z,98419.95
2018-08-24T16:05:51.355Z,98412.22
2018-08-24T16:08:20.126Z,98421.92
2018-08-24T16:10:48.549Z,98420.31
2018-08-24T16:13:17.119Z,98411.75
2018-08-24T16:15:46.195Z,98421.66
2018-08-24T16:18:20.065Z,98413.30
2018-08-24T16:20:48.725Z,98404.08
2018-08-24T16:23:17.279Z,98404.04
2018-08-24T16:25:46.077Z,98407.03
2018-08-24T16:28:14.579Z,98403.75
2018-08-24T16:30:43.244Z,98394.51
2018-08-24T16:33:11.730Z,98399.73
2018-08-24T16:35:40.274Z,98403.09
2018-08-24T16:38:08.769Z,98396.81
2018-08-24T16:40:37.373Z,98403.91
2018-08-24T16:43:05.829Z,98394.33
2018-08-24T16:45:34.541Z,98399.84
2018-08-24T16:48:03.386Z,98393.17
2018-08-24T16:50:32.324Z,98405.63
2018-08-24T16:53:00.762Z,98401.52
2018-08-24T16:55:29.334Z,98398.13
2018-08-24T16:57:57.911Z,98403.13
2018-08-24T17:00:26.434Z,98401.28
2018-08-24T17:02:55.049Z,98406.72
2018-08-24T17:05:23.658Z,98405.53
2018-08-24T17:07:52.274Z,98405.69
2018-08-24T17:10:20.757Z,98414.20
2018-08-24T17:12:49.327Z,98411.42
2018-08-24T17:15:17.810Z,98418.59
2018-08-24T17:17:46.506Z,98421.16
2018-08-24T17:20:14.994Z,98426.21
2018-08-24T17:22:43.814Z,98419.31
2018-08-24T17:25:12.294Z,98430.14
2018-08-24T17:27:40.712Z,98425.03
2018-08-24T17:30:09.330Z,98429.68
2018-08-24T17:32:37.858Z,98447.34
2018-08-24T17:35:07.386Z,98445.70
2018-08-24T17:37:36.462Z,98443.88
2018-08-24T17:40:05.165Z,98448.86
2018-08-24T17:42:34.226Z,98440.94
2018-08-24T17:45:02.866Z,98446.59
2018-08-24T17:47:31.877Z,98442.58
2018-08-24T17:50:00.382Z,98459.33
2018-08-24T17:52:28.847Z,98449.94
2018-08-24T17:54:57.455Z,98455.56
2018-08-24T17:57:25.935Z,98455.58
2018-08-24T17:59:54.762Z,98471.53
2018-08-24T18:02:23.225Z,98467.83
2018-08-24T18:04:51.935Z,98467.56
2018-08-24T18:07:20.423Z,98465.44
2018-08-24T18:09:49.194Z,98457.73
2018-08-24T18:12:17.753Z,98447.47
2018-08-24T18:14:46.406Z,98450.41
2018-08-24T18:17:15.030Z,98451.87
2018-08-24T18:19:43.709Z,98460.22
2018-08-24T18:22:12.128Z,98455.06
2018-08-24T18:24:40.704Z,98453.09
2018-08-24T18:27:09.306Z,98450.28
2018-08-24T18:29:37.813Z,98457.92
2018-08-24T18:32:06.421Z,98462.69
2018-08-24T18:34:34.824Z,98463.88
2018-08-24T18:37:03.502Z,98461.86
2018-08-24T18:39:32.447Z,98458.48
2018-08-24T18:42:01.066Z,98462.21
2018-08-24T18:44:29.474Z,98462.59
2018-08-24T18:46:58.054Z,98471.40
2018-08-24T18:49:26.560Z,98472.23
2018-08-24T18:51:55.160Z,98477.47
2018-08-24T18:54:26.502Z,98482.20
2018-08-24T18:56:55.488Z,98474.95
2018-08-24T18:59:24.253Z,98489.81
2018-08-24T19:01:53.334Z,98495.54
2018-08-24T19:04:21.867Z,98497.06
2018-08-24T19:06:50.450Z,98495.02
2018-08-24T19:09:18.923Z,98494.70
2018-08-24T19:14:28.045Z,98504.83
2018-08-24T19:16:56.623Z,98507.19
2018-08-24T19:19:30.485Z,98505.83
2018-08-24T19:22:01.069Z,98502.48
2018-08-24T19:24:29.772Z,98496.06
2018-08-24T19:26:58.247Z,98499.42
2018-08-24T19:29:32.121Z,98500.45
2018-08-24T19:32:01.034Z,98504.18
2018-08-24T19:34:29.563Z,98506.88
2018-08-24T19:36:58.069Z,98508.88
2018-08-24T19:39:26.604Z,98509.56
2018-08-24T19:42:00.278Z,98515.97
2018-08-24T19:44:28.818Z,98512.92
2018-08-24T19:46:57.293Z,98514.27
2018-08-24T19:49:26.072Z,98514.79
2018-08-24T19:51:54.663Z,98514.95
2018-08-24T19:54:23.132Z,98518.36
2018-08-24T19:56:51.682Z,98519.19
2018-08-24T19:59:20.153Z,98521.05
2018-08-24T20:01:48.797Z,98526.45
2018-08-24T20:04:17.338Z,98521.08
2018-08-24T20:06:51.885Z,98525.09
2018-08-24T20:09:25.648Z,98521.58
2018-08-24T20:11:54.249Z,98519.20
2018-08-24T20:14:28.092Z,98513.63
2018-08-24T20:17:02.032Z,98522.92
2018-08-24T20:19:30.454Z,98524.27
2018-08-24T20:21:59.234Z,98519.69
2018-08-24T20:24:27.848Z,98526.80
2018-08-24T20:26:56.480Z,98525.12
2018-08-24T20:29:25.058Z,98525.09
2018-08-24T20:31:53.858Z,98525.44
2018-08-24T20:34:22.662Z,98527.98
2018-08-24T20:36:51.241Z,98527.66
2018-08-24T20:39:19.982Z,98527.15
2018-08-24T20:41:48.543Z,98529.17
2018-08-24T20:44:17.142Z,98532.88
2018-08-24T20:46:45.779Z,98528.98
2018-08-24T20:49:14.486Z,98529.15
2018-08-24T20:51:43.181Z,98531.54
2018-08-24T20:54:11.757Z,98538.63
2018-08-24T20:56:40.254Z,98535.91
2018-08-24T20:59:08.909Z,98540.63
2018-08-24T21:01:37.365Z,98543.68
2018-08-24T21:04:05.935Z,98539.45
2018-08-24T21:06:34.735Z,98542.67
2018-08-24T21:09:03.382Z,98534.23
2018-08-24T21:11:32.486Z,98535.42
2018-08-24T21:14:00.971Z,98540.31
2018-08-24T21:16:29.638Z,98540.62
2018-08-24T21:18:58.237Z,98537.91
2018-08-24T21:21:26.897Z,98545.34
2018-08-24T21:23:55.517Z,98542.12
2018-08-24T21:26:24.121Z,98541.90
2018-08-24T21:28:52.855Z,98549.34
2018-08-24T21:31:21.465Z,98540.89
2018-08-24T21:33:49.994Z,98544.94
2018-08-24T21:36:18.486Z,98546.45
2018-08-24T21:38:47.178Z,98546.61
2018-08-24T21:41:15.774Z,98544.55
2018-08-24T21:43:44.557Z,98552.80
2018-08-24T21:46:13.045Z,98549.92
2018-08-24T21:48:41.914Z,98552.98
2018-08-24T21:51:10.433Z,98556.70
2018-08-24T21:53:39.058Z,98549.23
2018-08-24T21:56:07.864Z,98544.50
2018-08-24T21:58:36.616Z,98544.33
2018-08-24T22:01:05.264Z,98541.42
2018-08-24T22:03:34.350Z,98539.23
2018-08-24T22:06:02.908Z,98533.48
2018-08-24T22:08:31.691Z,98533.98
2018-08-24T22:11:00.334Z,98535.84
2018-08-24T22:13:28.878Z,98530.95
2018-08-24T22:15:57.523Z,98522.33
2018-08-24T22:18:26.204Z,98520.92
2018-08-24T22:20:54.945Z,98519.72
2018-08-24T22:23:23.468Z,98511.92
2018-08-24T22:25:51.997Z,98512.69
2018-08-24T22:28:20.402Z,98512.55
2018-08-24T22:30:49.126Z,98509.27
2018-08-24T22:33:17.569Z,98511.67
2018-08-24T22:35:46.411Z,98515.02
2018-08-24T22:38:14.826Z,98513.20
2018-08-24T22:40:43.521Z,98511.27
2018-08-24T22:43:17.302Z,98516.28
2018-08-24T22:45:45.741Z,98519.78
2018-08-24T22:48:14.227Z,98514.62
2018-08-24T22:50:42.802Z,98524.01
2018-08-24T22:53:11.507Z,98517.04
2018-08-24T22:55:39.950Z,98515.13
2018-08-24T22:58:08.551Z,98514.94
2018-08-24T23:00:37.109Z,98514.19
2018-08-24T23:03:05.868Z,98511.82
2018-08-24T23:05:34.646Z,98503.88
2018-08-24T23:08:03.061Z,98501.32
2018-08-24T23:10:31.792Z,98501.09
2018-08-24T23:13:00.217Z,98493.14
2018-08-24T23:15:28.638Z,98496.47
2018-08-24T23:17:57.074Z,98493.08
2018-08-24T23:20:25.584Z,98495.72
2018-08-24T23:22:54.109Z,98489.63
2018-08-24T23:25:22.546Z,98485.15
2018-08-24T23:27:51.196Z,98480.39
2018-08-24T23:30:19.656Z,98483.23
2018-08-24T23:32:48.077Z,98483.23
2018-08-24T23:35:16.560Z,98484.69
2018-08-24T23:37:45.214Z,98488.29
2018-08-24T23:40:13.657Z,98481.17
2018-08-24T23:42:42.182Z,98479.44
2018-08-24T23:45:10.605Z,98485.80
2018-08-24T23:47:39.091Z,98485.77
2018-08-24T23:50:07.746Z,98488.34
2018-08-24T23:52:36.178Z,98484.06
2018-08-24T23:55:04.678Z,98487.88
2018-08-24T23:57:34.137Z,98476.56
